Time;durP1;ratioP1;P1;durP2;ratioP2;P2;SDS_P1;SDS_P2;PMS_P1;PMS_P2;Temp;Humidity;BMP_temperature;BMP_pressure;BME280_temperature;BME280_humidity;BME280_pressure;Samples;Min_cycle;Max_cycle;Signal;HPM_P1;HPM_P2
2021/05/12 00:02:17;;;;;;;;;;;12.10;99.90;;;;;;10450225;28;19964;-70
2021/05/12 00:07:19;;;;;;;;;;;12.10;99.90;;;;;;10450419;28;19960;-70
2021/05/12 00:12:21;;;;;;;;;;;12.00;99.90;;;;;;10450329;28;20023;-70
2021/05/12 00:17:23;;;;;;;;;;;12.00;99.90;;;;;;10449349;28;20024;-70
2021/05/12 00:22:48;;;;;;;;;;;11.90;99.90;;;;;;10448236;28;19960;-70
2021/05/12 00:27:50;;;;;;;;;;;11.90;99.90;;;;;;10449802;28;19931;-70
2021/05/12 00:32:52;;;;;;;;;;;11.90;99.90;;;;;;10449480;28;19956;-70
2021/05/12 00:37:54;;;;;;;;;;;11.80;99.90;;;;;;10437803;28;19976;-70
2021/05/12 00:42:55;;;;;;;;;;;11.70;99.90;;;;;;10448502;28;20354;-70
2021/05/12 00:47:57;;;;;;;;;;;11.70;99.90;;;;;;10447342;28;20011;-70
2021/05/12 00:53:00;;;;;;;;;;;11.60;99.90;;;;;;10413538;28;19990;-70
2021/05/12 00:58:02;;;;;;;;;;;11.60;99.90;;;;;;10448693;28;19967;-71
2021/05/12 01:03:05;;;;;;;;;;;11.70;99.90;;;;;;10447497;28;20031;-70
2021/05/12 01:08:07;;;;;;;;;;;11.50;99.90;;;;;;10447860;28;19979;-70
2021/05/12 01:13:09;;;;;;;;;;;11.50;99.90;;;;;;10447622;28;19978;-71
2021/05/12 01:18:15;;;;;;;;;;;11.40;99.90;;;;;;10447145;28;19944;-71
2021/05/12 01:23:19;;;;;;;;;;;11.40;99.90;;;;;;10447204;28;19929;-70
2021/05/12 01:28:22;;;;;;;;;;;11.40;99.90;;;;;;10446897;28;20025;-71
2021/05/12 01:33:24;;;;;;;;;;;11.40;99.90;;;;;;10445774;28;19925;-71
2021/05/12 01:38:27;;;;;;;;;;;11.40;99.90;;;;;;10445601;28;20364;-70
2021/05/12 01:43:30;;;;;;;;;;;11.40;99.90;;;;;;10446337;28;19935;-70
2021/05/12 01:48:32;;;;;;;;;;;11.50;99.90;;;;;;10445417;28;20023;-70
2021/05/12 01:53:34;;;;;;;;;;;11.50;99.90;;;;;;10444835;28;19925;-71
2021/05/12 01:58:37;;;;;;;;;;;11.40;99.90;;;;;;10445307;28;20336;-70
2021/05/12 02:03:39;;;;;;;;;;;11.40;99.90;;;;;;10449830;28;19925;-71
2021/05/12 02:08:41;;;;;;;;;;;11.50;99.90;;;;;;10412066;28;20003;-71
2021/05/12 02:13:42;;;;;;;;;;;11.40;99.90;;;;;;10453169;28;20024;-71
2021/05/12 02:18:44;;;;;;;;;;;11.50;99.90;;;;;;10451550;28;19932;-71
2021/05/12 02:23:46;;;;;;;;;;;11.50;99.90;;;;;;10451127;28;20019;-71
2021/05/12 02:28:48;;;;;;;;;;;11.50;99.90;;;;;;10427247;28;20004;-71
2021/05/12 02:33:50;;;;;;;;;;;11.60;99.90;;;;;;10411764;28;20008;-71
2021/05/12 02:38:52;;;;;;;;;;;11.60;99.90;;;;;;10411596;28;19925;-71
2021/05/12 02:43:53;;;;;;;;;;;11.60;99.90;;;;;;10413773;28;20007;-71
2021/05/12 02:48:58;;;;;;;;;;;11.60;99.90;;;;;;10431989;28;20378;-71
2021/05/12 02:54:00;;;;;;;;;;;11.50;99.90;;;;;;10460569;28;19968;-70
2021/05/12 02:59:02;;;;;;;;;;;11.50;99.90;;;;;;10460767;28;19998;-71
2021/05/12 03:04:03;;;;;;;;;;;11.50;99.90;;;;;;10456774;28;19931;-71
2021/05/12 03:09:06;;;;;;;;;;;11.40;99.90;;;;;;10454757;28;20024;-71
2021/05/12 03:14:08;;;;;;;;;;;11.40;99.90;;;;;;10452680;28;19979;-71
2021/05/12 03:19:10;;;;;;;;;;;11.40;99.90;;;;;;10452343;28;19931;-70
2021/05/12 03:24:12;;;;;;;;;;;11.30;99.90;;;;;;10452373;28;19972;-71
2021/05/12 03:29:14;;;;;;;;;;;11.20;99.90;;;;;;10452444;28;19928;-71
2021/05/12 03:34:16;;;;;;;;;;;11.20;99.90;;;;;;10452140;28;20011;-70
2021/05/12 03:39:17;;;;;;;;;;;11.20;99.90;;;;;;10451694;28;19982;-70
2021/05/12 03:44:19;;;;;;;;;;;11.10;99.90;;;;;;10451948;28;20039;-71
2021/05/12 03:49:21;;;;;;;;;;;11.00;99.90;;;;;;10450991;28;19986;-70
2021/05/12 03:54:24;;;;;;;;;;;11.10;99.90;;;;;;10450499;28;20031;-71
2021/05/12 03:59:26;;;;;;;;;;;11.00;99.90;;;;;;10451317;28;20396;-70
2021/05/12 04:04:28;;;;;;;;;;;11.00;99.90;;;;;;10450700;28;20369;-71
2021/05/12 04:09:30;;;;;;;;;;;10.90;99.90;;;;;;10450830;28;20015;-70
2021/05/12 04:14:32;;;;;;;;;;;11.10;99.90;;;;;;10450612;28;20389;-71
2021/05/12 04:19:33;;;;;;;;;;;11.00;99.90;;;;;;10449926;28;19976;-71
2021/05/12 04:24:35;;;;;;;;;;;11.10;99.90;;;;;;10449554;28;19991;-71
2021/05/12 04:29:37;;;;;;;;;;;11.10;99.90;;;;;;10450392;28;19986;-71
2021/05/12 04:34:39;;;;;;;;;;;11.10;99.90;;;;;;10449822;28;20015;-71
2021/05/12 04:39:42;;;;;;;;;;;11.10;99.90;;;;;;10449745;28;19924;-71
2021/05/12 04:44:44;;;;;;;;;;;11.20;99.90;;;;;;10449263;28;19929;-71
2021/05/12 04:49:46;;;;;;;;;;;11.10;99.90;;;;;;10448608;28;19971;-70
2021/05/12 04:54:48;;;;;;;;;;;11.30;99.90;;;;;;10448760;28;20456;-71
2021/05/12 04:59:50;;;;;;;;;;;11.40;99.90;;;;;;10448767;28;20377;-71
2021/05/12 05:04:53;;;;;;;;;;;11.60;99.90;;;;;;10448267;28;19925;-71
2021/05/12 05:10:00;;;;;;;;;;;11.80;99.90;;;;;;10448425;28;19925;-71
2021/05/12 05:15:02;;;;;;;;;;;11.90;99.90;;;;;;10448008;28;19931;-71
2021/05/12 05:20:04;;;;;;;;;;;11.90;99.90;;;;;;10447530;28;20344;-71
2021/05/12 05:25:06;;;;;;;;;;;11.80;99.90;;;;;;10447292;28;19979;-71
2021/05/12 05:30:08;;;;;;;;;;;11.80;99.90;;;;;;10447606;28;20019;-71
2021/05/12 05:35:10;;;;;;;;;;;12.10;99.90;;;;;;10447456;28;20012;-71
2021/05/12 05:40:13;;;;;;;;;;;12.40;99.90;;;;;;10447753;28;19964;-71
2021/05/12 05:45:14;;;;;;;;;;;12.50;99.90;;;;;;10446598;28;19972;-70
2021/05/12 05:50:16;;;;;;;;;;;12.50;99.90;;;;;;10446579;28;20008;-71
2021/05/12 05:55:18;;;;;;;;;;;12.50;99.90;;;;;;10446709;28;19925;-71
2021/05/12 06:00:21;;;;;;;;;;;12.70;99.90;;;;;;10446219;28;19975;-71
2021/05/12 06:05:22;;;;;;;;;;;12.90;99.90;;;;;;10445668;28;20594;-71
2021/05/12 06:10:24;;;;;;;;;;;13.20;99.90;;;;;;10446445;28;19980;-71
2021/05/12 06:15:26;;;;;;;;;;;13.50;99.90;;;;;;10445778;28;20368;-71
2021/05/12 06:20:28;;;;;;;;;;;13.80;99.90;;;;;;10455268;28;20039;-71
2021/05/12 06:25:30;;;;;;;;;;;14.10;99.90;;;;;;10459651;28;19935;-71
2021/05/12 06:30:32;;;;;;;;;;;14.30;99.90;;;;;;10459820;28;19978;-71
2021/05/12 06:35:34;;;;;;;;;;;14.20;99.90;;;;;;10459409;28;19937;-71
2021/05/12 06:40:37;;;;;;;;;;;14.40;99.90;;;;;;10459678;28;20412;-71
2021/05/12 06:45:39;;;;;;;;;;;14.50;99.90;;;;;;10459454;28;20019;-71
2021/05/12 06:50:41;;;;;;;;;;;14.70;99.90;;;;;;10459537;28;19924;-71
2021/05/12 06:55:42;;;;;;;;;;;14.70;99.90;;;;;;10458696;28;19971;-71
2021/05/12 07:00:44;;;;;;;;;;;14.70;99.90;;;;;;10458973;28;19924;-71
2021/05/12 07:05:46;;;;;;;;;;;14.90;99.90;;;;;;10459628;28;20016;-72
2021/05/12 07:10:49;;;;;;;;;;;15.30;99.90;;;;;;10459368;28;20019;-72
2021/05/12 07:15:50;;;;;;;;;;;15.50;99.90;;;;;;10453847;28;19975;-71
2021/05/12 07:20:53;;;;;;;;;;;15.60;99.90;;;;;;10459356;28;20015;-71
2021/05/12 07:25:56;;;;;;;;;;;15.60;99.90;;;;;;10440792;28;20297;-63
2021/05/12 07:30:58;;;;;;;;;;;16.10;99.90;;;;;;10455670;28;19929;-63
2021/05/12 07:36:15;;;;;;;;;;;16.90;99.90;;;;;;10450498;28;19929;-63
2021/05/12 07:41:16;;;;;;;;;;;17.80;99.90;;;;;;10452037;28;19990;-63
2021/05/12 07:46:19;;;;;;;;;;;18.10;99.90;;;;;;10451438;28;20023;-63
2021/05/12 07:51:22;;;;;;;;;;;17.80;99.50;;;;;;10450522;28;19963;-63
2021/05/12 07:56:25;;;;;;;;;;;17.90;99.60;;;;;;10450693;28;20517;-63
2021/05/12 08:01:31;;;;;;;;;;;18.20;92.50;;;;;;10449419;28;19931;-63
2021/05/12 08:06:33;;;;;;;;;;;17.80;95.50;;;;;;10445245;28;19975;-63
2021/05/12 08:11:35;;;;;;;;;;;18.00;95.70;;;;;;10448165;28;19928;-63
2021/05/12 08:16:37;;;;;;;;;;;17.70;94.20;;;;;;10447824;28;19928;-63
2021/05/12 08:21:39;;;;;;;;;;;17.00;96.30;;;;;;10447099;28;19956;-63
2021/05/12 08:26:41;;;;;;;;;;;16.80;95.20;;;;;;10447619;28;20029;-63
2021/05/12 08:31:45;;;;;;;;;;;16.90;96.30;;;;;;10447281;28;19925;-63
2021/05/12 08:36:47;;;;;;;;;;;17.00;93.50;;;;;;10446671;28;19991;-63
2021/05/12 08:41:49;;;;;;;;;;;17.60;95.00;;;;;;10446146;28;20004;-63
2021/05/12 08:46:51;;;;;;;;;;;18.00;89.00;;;;;;10446772;28;19939;-63
2021/05/12 08:51:54;;;;;;;;;;;18.10;90.80;;;;;;10443090;28;19943;-63
2021/05/12 08:56:56;;;;;;;;;;;17.90;87.40;;;;;;10445554;28;20242;-63
2021/05/12 09:01:59;;;;;;;;;;;17.90;88.80;;;;;;10445581;28;20012;-63
2021/05/12 09:07:01;;;;;;;;;;;17.80;81.60;;;;;;10445525;28;20020;-63
2021/05/12 09:12:02;;;;;;;;;;;17.50;91.10;;;;;;10446130;28;20016;-63
2021/05/12 09:17:04;;;;;;;;;;;17.10;92.70;;;;;;10447675;28;20031;-63
2021/05/12 09:22:06;;;;;;;;;;;17.00;92.70;;;;;;10446943;28;20300;-62
2021/05/12 09:27:16;;;;;;;;;;;16.70;93.90;;;;;;10446433;28;19933;-63
2021/05/12 09:32:23;;;;;;;;;;;16.50;97.10;;;;;;10447068;28;19928;-63
2021/05/12 09:37:26;;;;;;;;;;;16.80;95.20;;;;;;10446828;28;19925;-63
2021/05/12 09:42:28;;;;;;;;;;;17.20;93.50;;;;;;10447141;28;20025;-63
2021/05/12 09:47:31;;;;;;;;;;;17.90;93.40;;;;;;10446557;28;19932;-63
2021/05/12 09:52:33;;;;;;;;;;;18.40;82.60;;;;;;10446416;28;19960;-63
2021/05/12 09:57:35;;;;;;;;;;;18.90;79.30;;;;;;10446721;28;19929;-63
2021/05/12 10:02:46;;;;;;;;;;;19.00;75.20;;;;;;10446139;28;19925;-63
2021/05/12 10:07:49;;;;;;;;;;;18.40;75.80;;;;;;10445830;28;20343;-63
2021/05/12 10:12:50;;;;;;;;;;;18.10;81.70;;;;;;10445904;28;20007;-63
2021/05/12 10:17:53;;;;;;;;;;;18.00;84.90;;;;;;10445323;28;20377;-63
2021/05/12 10:22:56;;;;;;;;;;;18.10;83.00;;;;;;10446435;28;19968;-63
2021/05/12 10:27:59;;;;;;;;;;;18.30;79.30;;;;;;10446055;28;19970;-63
2021/05/12 10:33:01;;;;;;;;;;;18.30;77.10;;;;;;10445430;28;20024;-63
2021/05/12 10:38:03;;;;;;;;;;;18.30;72.20;;;;;;10446385;28;19924;-63
2021/05/12 10:48:33;;;;;;;;;;;17.70;77.90;;;;;;10444344;28;19971;-63
2021/05/12 10:53:45;;;;;;;;;;;17.40;84.00;;;;;;10445247;28;20261;-63
2021/05/12 10:58:57;;;;;;;;;;;17.20;88.80;;;;;;10444991;28;19970;-63
2021/05/12 11:03:59;;;;;;;;;;;17.00;91.20;;;;;;10445644;28;20373;-63
2021/05/12 11:09:09;;;;;;;;;;;17.30;92.60;;;;;;10452967;28;19979;-63
2021/05/12 11:14:17;;;;;;;;;;;17.20;92.60;;;;;;10452867;28;19964;-63
2021/05/12 11:19:38;;;;;;;;;;;17.20;92.70;;;;;;10452861;28;19947;-63
2021/05/12 11:24:51;;;;;;;;;;;17.50;91.60;;;;;;10451764;28;20452;-63
2021/05/12 11:34:55;;;;;;;;;;;18.10;91.30;;;;;;10451912;28;20028;-63
2021/05/12 11:39:57;;;;;;;;;;;18.40;90.50;;;;;;10452235;28;19975;-63
2021/05/12 11:45:05;;;;;;;;;;;18.70;86.30;;;;;;10451863;28;20611;-63
2021/05/12 11:50:19;;;;;;;;;;;18.60;80.80;;;;;;10477225;28;20004;-63
2021/05/12 11:55:24;;;;;;;;;;;18.60;86.10;;;;;;10477233;28;19975;-64
2021/05/12 12:00:34;;;;;;;;;;;18.90;81.70;;;;;;10449658;28;19925;-63
2021/05/12 12:05:42;;;;;;;;;;;18.80;80.00;;;;;;10449646;28;19975;-63
2021/05/12 12:10:44;;;;;;;;;;;19.20;80.10;;;;;;10453121;28;19929;-64
2021/05/12 12:15:47;;;;;;;;;;;19.90;75.50;;;;;;10448576;28;19978;-63
2021/05/12 12:20:49;;;;;;;;;;;20.40;69.90;;;;;;10448888;28;19924;-63
2021/05/12 12:26:23;;;;;;;;;;;20.10;73.40;;;;;;10450024;28;19935;-63
2021/05/12 12:31:27;;;;;;;;;;;20.30;70.00;;;;;;10415367;28;20011;-63
2021/05/12 12:36:29;;;;;;;;;;;19.90;72.80;;;;;;10449396;28;19932;-64
2021/05/12 12:41:31;;;;;;;;;;;19.70;71.50;;;;;;10449574;28;20012;-63
2021/05/12 12:46:32;;;;;;;;;;;20.00;69.70;;;;;;10449018;28;20011;-63
2021/05/12 12:51:34;;;;;;;;;;;19.90;68.60;;;;;;10448990;28;19925;-64
2021/05/12 12:56:48;;;;;;;;;;;19.80;66.70;;;;;;10448567;28;19929;-64
2021/05/12 13:01:51;;;;;;;;;;;19.50;62.90;;;;;;10448270;28;20014;-63
2021/05/12 13:06:59;;;;;;;;;;;19.60;66.00;;;;;;10448632;28;20020;-64
2021/05/12 13:12:03;;;;;;;;;;;20.10;64.60;;;;;;10448135;28;20026;-63
2021/05/12 13:17:05;;;;;;;;;;;20.30;60.50;;;;;;10447543;28;20336;-63
2021/05/12 13:22:09;;;;;;;;;;;20.00;58.90;;;;;;10443094;28;20426;-64
2021/05/12 13:27:10;;;;;;;;;;;19.50;57.70;;;;;;10444544;28;20339;-64
2021/05/12 13:32:12;;;;;;;;;;;18.70;59.00;;;;;;10446530;28;20431;-63
2021/05/12 13:37:14;;;;;;;;;;;18.30;62.20;;;;;;10447851;28;19929;-63
2021/05/12 13:42:16;;;;;;;;;;;18.40;63.30;;;;;;10445865;28;19931;-63
2021/05/12 13:47:18;;;;;;;;;;;18.60;61.20;;;;;;10446515;28;19925;-63
2021/05/12 13:52:33;;;;;;;;;;;18.70;60.60;;;;;;10445682;28;20019;-64
2021/05/12 13:58:02;;;;;;;;;;;19.00;62.30;;;;;;10444007;28;20028;-63
2021/05/12 14:03:04;;;;;;;;;;;18.80;61.10;;;;;;10445958;28;20015;-63
2021/05/12 14:08:07;;;;;;;;;;;18.70;62.50;;;;;;10438530;28;20320;-63
2021/05/12 14:13:15;;;;;;;;;;;18.60;61.60;;;;;;10445167;28;19983;-63
2021/05/12 14:18:17;;;;;;;;;;;18.60;60.30;;;;;;10445469;28;19967;-63
2021/05/12 14:23:19;;;;;;;;;;;18.30;64.60;;;;;;10445145;28;20019;-63
2021/05/12 14:28:27;;;;;;;;;;;18.50;66.70;;;;;;10445461;28;19936;-62
2021/05/12 14:33:29;;;;;;;;;;;18.70;64.90;;;;;;10444766;28;19931;-62
2021/05/12 14:38:32;;;;;;;;;;;18.70;64.20;;;;;;10444346;28;20410;-63
2021/05/12 14:43:34;;;;;;;;;;;18.80;63.80;;;;;;10453653;28;19929;-62
2021/05/12 14:48:41;;;;;;;;;;;18.80;63.60;;;;;;10453633;28;20416;-63
2021/05/12 14:53:44;;;;;;;;;;;18.80;65.30;;;;;;10451072;28;20540;-62
2021/05/12 14:59:09;;;;;;;;;;;18.90;65.90;;;;;;10451718;28;19924;-63
2021/05/12 15:09:12;;;;;;;;;;;19.20;65.40;;;;;;10451563;28;19963;-63
2021/05/12 15:14:14;;;;;;;;;;;19.20;64.80;;;;;;10452181;28;19947;-63
2021/05/12 15:19:16;;;;;;;;;;;19.10;64.50;;;;;;10452069;28;20500;-63
2021/05/12 15:24:20;;;;;;;;;;;18.80;64.80;;;;;;10451372;28;19964;-63
2021/05/12 15:29:22;;;;;;;;;;;18.60;65.80;;;;;;10446928;28;19982;-63
2021/05/12 15:34:23;;;;;;;;;;;18.20;68.40;;;;;;10451217;28;20108;-63
2021/05/12 15:39:25;;;;;;;;;;;17.90;69.30;;;;;;10450663;28;19928;-62
2021/05/12 15:44:27;;;;;;;;;;;17.70;70.60;;;;;;10451090;28;19925;-63
2021/05/12 15:49:29;;;;;;;;;;;17.50;72.80;;;;;;10450706;28;20427;-63
2021/05/12 15:54:31;;;;;;;;;;;17.40;73.70;;;;;;10448776;28;19925;-63
2021/05/12 15:59:33;;;;;;;;;;;17.30;73.30;;;;;;10450171;28;20615;-63
2021/05/12 16:04:34;;;;;;;;;;;17.20;74.70;;;;;;10449890;28;19931;-62
2021/05/12 16:09:38;;;;;;;;;;;17.30;73.00;;;;;;10449951;28;20012;-63
2021/05/12 16:14:40;;;;;;;;;;;17.30;73.80;;;;;;10449870;28;20358;-63
2021/05/12 16:19:42;;;;;;;;;;;17.40;74.90;;;;;;10448737;28;20373;-63
2021/05/12 16:24:44;;;;;;;;;;;17.40;72.10;;;;;;10449884;28;20579;-62
2021/05/12 16:29:46;;;;;;;;;;;17.40;68.70;;;;;;10449163;28;20016;-62
2021/05/12 16:34:49;;;;;;;;;;;17.70;70.70;;;;;;10448380;28;19924;-62
2021/05/12 16:39:51;;;;;;;;;;;18.30;69.30;;;;;;10449436;28;20016;-62
2021/05/12 16:44:53;;;;;;;;;;;18.30;69.10;;;;;;10449593;28;19960;-63
2021/05/12 16:49:54;;;;;;;;;;;18.20;67.50;;;;;;10447830;28;19929;-63
2021/05/12 16:54:56;;;;;;;;;;;18.20;67.20;;;;;;10448269;28;20004;-62
2021/05/12 16:59:58;;;;;;;;;;;18.00;66.80;;;;;;10447656;28;20008;-63
2021/05/12 17:05:00;;;;;;;;;;;18.00;68.50;;;;;;10447305;28;20368;-63
2021/05/12 17:10:04;;;;;;;;;;;17.70;69.70;;;;;;10448080;28;20019;-63
2021/05/12 17:15:06;;;;;;;;;;;17.50;74.00;;;;;;10447667;28;19948;-63
2021/05/12 17:20:09;;;;;;;;;;;17.50;70.40;;;;;;10447354;28;19975;-63
2021/05/12 17:25:11;;;;;;;;;;;17.30;72.10;;;;;;10447126;28;19931;-62
2021/05/12 17:30:13;;;;;;;;;;;16.50;74.90;;;;;;10420441;28;20405;-63
2021/05/12 17:35:15;;;;;;;;;;;16.10;79.30;;;;;;10413161;28;20425;-62
2021/05/12 17:40:17;;;;;;;;;;;15.90;81.50;;;;;;10408761;28;19924;-62
2021/05/12 17:45:19;;;;;;;;;;;15.80;87.60;;;;;;10444365;28;19932;-62
2021/05/12 17:50:22;;;;;;;;;;;16.10;90.80;;;;;;10422543;28;20373;-62
2021/05/12 17:55:24;;;;;;;;;;;16.10;91.70;;;;;;10443617;28;20363;-62
2021/05/12 18:00:27;;;;;;;;;;;16.10;93.40;;;;;;10442141;28;21385;-62
2021/05/12 18:05:31;;;;;;;;;;;16.00;95.20;;;;;;10434644;28;19925;-62
2021/05/12 18:11:57;;;;;;;;;;;15.40;95.90;;;;;;10443291;28;19925;-62
2021/05/12 18:21:29;;;;;;;;;;;15.10;99.90;;;;;;10452535;28;20630;-62
2021/05/12 18:26:32;;;;;;;;;;;14.70;99.90;;;;;;10430982;28;20389;-62
2021/05/12 18:31:34;;;;;;;;;;;14.10;99.90;;;;;;10443272;28;20024;-63
2021/05/12 18:36:44;;;;;;;;;;;13.90;99.90;;;;;;10442905;28;19924;-68
2021/05/12 18:41:46;;;;;;;;;;;13.90;99.90;;;;;;10443961;28;19924;-68
2021/05/12 18:46:56;;;;;;;;;;;13.80;99.90;;;;;;10432948;28;19925;-68
2021/05/12 18:51:58;;;;;;;;;;;13.50;99.90;;;;;;10442854;28;19929;-68
2021/05/12 18:57:02;;;;;;;;;;;13.40;99.90;;;;;;10437042;28;20023;-69
2021/05/12 19:02:05;;;;;;;;;;;13.20;99.90;;;;;;10444681;28;20013;-69
2021/05/12 19:07:11;;;;;;;;;;;13.10;99.90;;;;;;10442444;28;19925;-68
2021/05/12 19:12:22;;;;;;;;;;;12.90;99.90;;;;;;10441851;28;20043;-69
2021/05/12 19:17:27;;;;;;;;;;;12.90;99.90;;;;;;10443695;28;19967;-69
2021/05/12 19:28:08;;;;;;;;;;;12.80;99.90;;;;;;10448233;28;20015;-69
2021/05/12 19:43:53;;;;;;;;;;;12.40;99.90;;;;;;10450371;28;19935;-69
2021/05/12 19:48:54;;;;;;;;;;;12.40;99.90;;;;;;10450271;28;20015;-68
2021/05/12 19:53:58;;;;;;;;;;;12.40;99.90;;;;;;10450162;28;19925;-69
2021/05/12 19:59:00;;;;;;;;;;;12.40;99.90;;;;;;10450006;28;19975;-69
2021/05/12 20:04:05;;;;;;;;;;;12.30;99.90;;;;;;10449330;28;20027;-68
2021/05/12 20:09:14;;;;;;;;;;;12.30;99.90;;;;;;10449617;28;19978;-68
2021/05/12 20:14:16;;;;;;;;;;;12.40;99.90;;;;;;10449570;28;19964;-68
2021/05/12 20:19:18;;;;;;;;;;;12.50;99.90;;;;;;10449951;28;19967;-68
2021/05/12 20:24:19;;;;;;;;;;;12.60;99.90;;;;;;10448275;28;19978;-68
2021/05/12 20:29:21;;;;;;;;;;;12.50;99.90;;;;;;10449260;28;20011;-68
2021/05/12 20:39:43;;;;;;;;;;;12.00;99.90;;;;;;10417286;28;20015;-68
2021/05/12 20:44:45;;;;;;;;;;;12.00;99.90;;;;;;10473439;28;19960;-69
2021/05/12 20:49:47;;;;;;;;;;;11.90;99.90;;;;;;10446691;28;19925;-68
2021/05/12 20:54:49;;;;;;;;;;;11.80;99.90;;;;;;10453050;28;20007;-69
2021/05/12 20:59:51;;;;;;;;;;;11.50;99.90;;;;;;10460957;28;20413;-69
2021/05/12 21:04:52;;;;;;;;;;;11.40;99.90;;;;;;10463070;28;20327;-68
2021/05/12 21:09:54;;;;;;;;;;;11.50;99.90;;;;;;10452266;28;20024;-69
2021/05/12 21:14:56;;;;;;;;;;;11.50;99.90;;;;;;10465170;28;20435;-68
2021/05/12 21:19:59;;;;;;;;;;;11.50;99.90;;;;;;10474144;28;20023;-69
2021/05/12 21:25:01;;;;;;;;;;;11.30;99.90;;;;;;10447246;28;20435;-68
2021/05/12 21:30:03;;;;;;;;;;;10.90;99.90;;;;;;10456890;28;20408;-69
2021/05/12 21:35:06;;;;;;;;;;;11.00;99.90;;;;;;10470652;28;20023;-68
2021/05/12 21:40:08;;;;;;;;;;;11.10;99.90;;;;;;10446405;28;19964;-69
2021/05/12 21:45:10;;;;;;;;;;;10.90;99.90;;;;;;10445241;28;20019;-68
2021/05/12 21:50:12;;;;;;;;;;;10.70;99.90;;;;;;10444777;28;20393;-68
2021/05/12 21:55:16;;;;;;;;;;;10.60;99.90;;;;;;10444643;28;19924;-68
2021/05/12 22:00:30;;;;;;;;;;;10.60;99.90;;;;;;10447973;28;20015;-68
2021/05/12 22:05:43;;;;;;;;;;;10.70;99.90;;;;;;10469647;28;20015;-69
2021/05/12 22:26:54;;;;;;;;;;;10.40;99.90;;;;;;10454695;28;20003;-68
2021/05/12 22:31:57;;;;;;;;;;;10.30;99.90;;;;;;10469137;28;19932;-69
2021/05/12 22:36:59;;;;;;;;;;;10.10;99.90;;;;;;10444330;28;19971;-68
2021/05/12 22:42:01;;;;;;;;;;;10.00;99.90;;;;;;10466535;28;19976;-68
2021/05/12 22:47:03;;;;;;;;;;;9.90;99.90;;;;;;10452901;28;19979;-68
2021/05/12 22:52:07;;;;;;;;;;;9.90;99.90;;;;;;10473362;28;19924;-68
2021/05/12 23:02:11;;;;;;;;;;;9.70;99.90;;;;;;10482756;28;19970;-68
2021/05/12 23:07:13;;;;;;;;;;;9.70;99.90;;;;;;10463061;28;19936;-68
2021/05/12 23:12:15;;;;;;;;;;;9.60;99.90;;;;;;10456624;28;19925;-68
2021/05/12 23:17:17;;;;;;;;;;;9.60;99.90;;;;;;10451107;28;20395;-68
2021/05/12 23:22:21;;;;;;;;;;;9.50;99.90;;;;;;10450577;28;20004;-68
2021/05/12 23:27:23;;;;;;;;;;;9.40;99.90;;;;;;10450840;28;20446;-68
2021/05/12 23:32:24;;;;;;;;;;;9.30;99.90;;;;;;10450896;28;19956;-69
2021/05/12 23:37:27;;;;;;;;;;;9.20;99.90;;;;;;10439563;28;20396;-68
2021/05/12 23:42:36;;;;;;;;;;;9.20;99.90;;;;;;10449391;28;20012;-68
2021/05/12 23:47:38;;;;;;;;;;;9.10;99.90;;;;;;10441151;28;19975;-68
2021/05/12 23:52:40;;;;;;;;;;;9.10;99.90;;;;;;10450848;28;20479;-68
2021/05/12 23:57:42;;;;;;;;;;;8.90;99.90;;;;;;10409851;28;20020;-68
